createdAt,value
2022-10-06T00:00:43.570Z,74.26
2022-10-06T00:03:10.493Z,74.23
2022-10-06T00:05:37.411Z,74.12
2022-10-06T00:08:04.341Z,74.13
2022-10-06T00:10:31.480Z,74.13
2022-10-06T00:12:58.754Z,74.33
2022-10-06T00:15:28.413Z,74.18
2022-10-06T00:17:55.886Z,73.99
2022-10-06T00:20:23.548Z,73.97
2022-10-06T00:22:50.326Z,74.10
2022-10-06T00:25:19.369Z,74.08
2022-10-06T00:27:47.870Z,73.96
2022-10-06T00:30:20.825Z,74.13
2022-10-06T00:32:52.872Z,73.55
2022-10-06T00:35:20.327Z,73.28
2022-10-06T00:37:48.899Z,72.81
2022-10-06T00:40:15.830Z,72.25
2022-10-06T00:43:04.403Z,71.62
2022-10-06T00:45:43.367Z,71.86
2022-10-06T00:48:14.611Z,69.89
2022-10-06T00:50:42.104Z,70.63
2022-10-06T00:53:08.820Z,70.86
2022-10-06T00:55:35.564Z,71.07
2022-10-06T00:58:02.274Z,71.37
2022-10-06T01:00:29.037Z,71.07
2022-10-06T01:02:59.779Z,71.62
2022-10-06T01:05:29.718Z,72.30
2022-10-06T01:07:56.690Z,72.71
2022-10-06T01:10:23.464Z,72.82
2022-10-06T01:12:50.707Z,73.11
2022-10-06T01:15:18.646Z,73.51
2022-10-06T01:17:53.733Z,73.86
2022-10-06T01:20:21.676Z,73.77
2022-10-06T01:22:51.390Z,73.91
2022-10-06T01:25:18.931Z,73.95
2022-10-06T01:27:50.666Z,73.97
2022-10-06T01:30:21.001Z,74.09
2022-10-06T01:32:47.744Z,73.73
2022-10-06T01:35:14.542Z,73.87
2022-10-06T01:37:41.283Z,73.96
2022-10-06T01:40:08.791Z,74.22
2022-10-06T01:42:36.362Z,73.92
2022-10-06T01:45:04.218Z,74.04
2022-10-06T01:47:31.157Z,73.98
2022-10-06T01:49:57.841Z,73.77
2022-10-06T01:52:25.102Z,73.88
2022-10-06T01:54:52.593Z,74.14
2022-10-06T01:57:21.234Z,73.85
2022-10-06T01:59:51.544Z,73.87
2022-10-06T02:02:21.269Z,73.86
2022-10-06T02:04:48.435Z,73.90
2022-10-06T02:07:15.145Z,73.79
2022-10-06T02:09:41.874Z,73.80
2022-10-06T02:12:08.577Z,73.89
2022-10-06T02:14:35.299Z,73.80
2022-10-06T02:17:02.222Z,73.66
2022-10-06T02:19:28.945Z,73.56
2022-10-06T02:21:55.854Z,73.67
2022-10-06T02:24:22.751Z,73.54
2022-10-06T02:26:49.542Z,73.59
2022-10-06T02:29:16.298Z,73.46
2022-10-06T02:31:43.118Z,73.44
2022-10-06T02:34:10.120Z,73.13
2022-10-06T02:36:36.935Z,73.05
2022-10-06T02:39:04.197Z,73.25
2022-10-06T02:41:31.779Z,72.87
2022-10-06T02:43:58.814Z,72.83
2022-10-06T02:46:25.902Z,73.03
2022-10-06T02:48:53.855Z,72.92
2022-10-06T02:51:21.634Z,72.86
2022-10-06T02:53:49.241Z,72.84
2022-10-06T02:56:19.037Z,73.02
2022-10-06T02:58:47.822Z,72.95
2022-10-06T03:01:24.046Z,73.21
2022-10-06T03:03:51.115Z,72.99
2022-10-06T03:06:23.308Z,73.08
2022-10-06T03:08:55.437Z,72.97
2022-10-06T03:11:27.277Z,72.94
2022-10-06T03:13:55.713Z,73.18
2022-10-06T03:16:25.352Z,73.54
2022-10-06T03:18:54.673Z,73.24
2022-10-06T03:21:23.613Z,73.05
2022-10-06T03:23:52.211Z,73.21
2022-10-06T03:26:21.747Z,73.21
2022-10-06T03:28:48.673Z,73.03
2022-10-06T03:31:16.046Z,72.97
2022-10-06T03:33:42.863Z,73.24
2022-10-06T03:36:14.750Z,73.09
2022-10-06T03:38:42.004Z,73.19
2022-10-06T03:41:11.281Z,73.29
2022-10-06T03:43:38.723Z,73.36
2022-10-06T03:46:06.415Z,73.32
2022-10-06T03:48:35.312Z,73.35
2022-10-06T03:51:03.826Z,73.32
2022-10-06T03:53:31.518Z,73.36
2022-10-06T03:56:05.623Z,73.37
2022-10-06T03:58:35.520Z,73.29
2022-10-06T04:01:07.039Z,73.46
2022-10-06T04:03:34.619Z,73.56
2022-10-06T04:06:03.994Z,73.54
2022-10-06T04:08:32.148Z,73.47
2022-10-06T04:11:16.667Z,73.54
2022-10-06T04:13:44.447Z,73.46
2022-10-06T04:16:11.269Z,73.50
2022-10-06T04:18:38.282Z,73.54
2022-10-06T04:21:05.438Z,73.46
2022-10-06T04:23:32.525Z,73.31
2022-10-06T04:26:06.418Z,73.56
2022-10-06T04:28:33.854Z,73.56
2022-10-06T04:31:01.441Z,73.49
2022-10-06T04:33:28.592Z,73.65
2022-10-06T04:36:03.868Z,73.67
2022-10-06T04:38:35.181Z,73.56
2022-10-06T04:41:11.547Z,73.80
2022-10-06T04:43:38.302Z,73.62
2022-10-06T04:46:18.393Z,73.60
2022-10-06T04:48:53.287Z,73.59
2022-10-06T04:51:21.822Z,73.56
2022-10-06T04:53:48.706Z,73.61
2022-10-06T04:56:41.785Z,73.33
2022-10-06T04:59:08.518Z,73.22
2022-10-06T05:01:36.532Z,73.34
2022-10-06T05:04:05.020Z,73.17
2022-10-06T05:06:37.344Z,73.27
2022-10-06T05:09:08.584Z,73.20
2022-10-06T05:11:35.377Z,72.90
2022-10-06T05:14:02.125Z,73.59
2022-10-06T05:16:30.129Z,73.68
2022-10-06T05:18:57.260Z,73.83
2022-10-06T05:21:26.470Z,73.89
2022-10-06T05:23:53.184Z,74.04
2022-10-06T05:26:22.379Z,73.88
2022-10-06T05:28:49.287Z,73.87
2022-10-06T05:31:19.115Z,73.86
2022-10-06T05:33:46.779Z,73.89
2022-10-06T05:36:19.971Z,73.86
2022-10-06T05:38:47.303Z,73.89
2022-10-06T05:41:16.845Z,73.83
2022-10-06T05:43:44.852Z,73.86
2022-10-06T05:46:19.948Z,73.92
2022-10-06T05:48:51.690Z,73.78
2022-10-06T05:51:20.089Z,73.72
2022-10-06T05:53:48.495Z,73.54
2022-10-06T05:56:20.284Z,73.73
2022-10-06T05:58:48.797Z,73.58
2022-10-06T06:01:23.421Z,73.55
2022-10-06T06:03:59.457Z,73.68
2022-10-06T06:06:28.243Z,73.71
2022-10-06T06:09:19.810Z,73.79
2022-10-06T06:11:48.132Z,74.06
2022-10-06T06:14:18.451Z,74.00
2022-10-06T06:16:46.477Z,73.97
2022-10-06T06:19:14.155Z,73.97
2022-10-06T06:21:40.874Z,73.93
2022-10-06T06:24:07.629Z,73.82
2022-10-06T06:26:36.917Z,73.83
2022-10-06T06:29:05.270Z,73.75
2022-10-06T06:31:37.440Z,73.89
2022-10-06T06:34:06.674Z,74.00
2022-10-06T06:36:40.964Z,73.95
2022-10-06T06:39:13.138Z,73.90
2022-10-06T06:41:47.248Z,74.05
2022-10-06T06:44:14.175Z,74.20
2022-10-06T06:46:49.444Z,74.12
2022-10-06T06:49:16.869Z,74.18
2022-10-06T06:51:45.088Z,74.11
2022-10-06T06:54:12.851Z,74.28
2022-10-06T06:56:39.750Z,74.27
2022-10-06T06:59:08.921Z,74.20
2022-10-06T07:01:35.842Z,74.05
2022-10-06T07:04:02.880Z,74.24
2022-10-06T07:06:31.095Z,73.70
2022-10-06T07:08:59.336Z,73.82
2022-10-06T07:11:34.491Z,73.91
2022-10-06T07:14:12.719Z,73.82
2022-10-06T07:16:58.163Z,73.89
2022-10-06T07:19:42.985Z,73.76
2022-10-06T07:22:28.305Z,73.72
2022-10-06T07:25:08.587Z,73.18
2022-10-06T07:27:46.923Z,72.94
2022-10-06T07:30:19.629Z,72.63
2022-10-06T07:32:47.569Z,72.47
2022-10-06T07:35:15.479Z,72.00
2022-10-06T07:37:42.682Z,71.96
2022-10-06T07:40:10.149Z,71.83
2022-10-06T07:42:49.027Z,71.62
2022-10-06T07:45:39.206Z,71.76
2022-10-06T07:48:09.808Z,72.08
2022-10-06T07:50:40.359Z,72.09
2022-10-06T07:53:09.671Z,72.35
2022-10-06T07:55:37.304Z,72.44
2022-10-06T07:58:04.096Z,72.42
2022-10-06T08:00:31.001Z,72.61
2022-10-06T08:02:57.811Z,72.36
2022-10-06T08:05:24.601Z,72.57
2022-10-06T08:07:52.227Z,72.56
2022-10-06T08:10:20.729Z,72.49
2022-10-06T08:15:14.554Z,72.93
2022-10-06T08:17:41.594Z,73.10
2022-10-06T08:20:11.034Z,73.17
2022-10-06T08:22:39.986Z,73.55
2022-10-06T08:25:09.282Z,73.75
2022-10-06T08:27:37.151Z,73.40
2022-10-06T08:30:05.903Z,73.31
2022-10-06T08:32:33.171Z,73.35
2022-10-06T08:34:59.914Z,73.35
2022-10-06T08:37:27.251Z,73.49
2022-10-06T08:39:54.870Z,73.69
2022-10-06T08:42:28.491Z,73.54
2022-10-06T08:45:00.954Z,73.77
2022-10-06T08:47:29.573Z,73.51
2022-10-06T08:49:57.462Z,73.55
2022-10-06T08:52:42.098Z,73.77
2022-10-06T08:55:28.928Z,73.51
2022-10-06T08:58:13.973Z,74.02
2022-10-06T09:00:40.673Z,73.76
2022-10-06T09:03:16.770Z,73.68
2022-10-06T09:05:44.293Z,73.80
2022-10-06T09:08:44.616Z,73.72
2022-10-06T09:12:19.161Z,72.84
2022-10-06T09:14:51.247Z,72.79
2022-10-06T09:17:24.964Z,73.10
2022-10-06T09:19:57.207Z,73.36
2022-10-06T09:22:24.390Z,73.05
2022-10-06T09:24:55.968Z,73.05
2022-10-06T09:27:28.479Z,73.20
2022-10-06T09:29:55.395Z,73.21
2022-10-06T09:32:24.326Z,73.34
2022-10-06T09:34:55.923Z,73.55
2022-10-06T09:37:23.559Z,73.56
2022-10-06T09:39:51.748Z,73.82
2022-10-06T09:42:26.427Z,73.47
2022-10-06T09:45:07.497Z,73.48
2022-10-06T09:47:39.597Z,73.29
2022-10-06T09:50:12.231Z,73.39
2022-10-06T09:52:40.252Z,73.15
2022-10-06T09:55:15.355Z,73.44
2022-10-06T09:57:50.324Z,73.37
2022-10-06T10:00:30.389Z,72.59
2022-10-06T10:02:59.507Z,72.82
2022-10-06T10:05:27.475Z,73.30
2022-10-06T10:08:01.968Z,73.34
2022-10-06T10:10:28.736Z,73.33
2022-10-06T10:12:57.264Z,72.63
2022-10-06T10:15:33.059Z,72.42
2022-10-06T10:18:03.884Z,72.23
2022-10-06T10:20:54.559Z,72.77
2022-10-06T10:23:43.409Z,72.86
2022-10-06T10:26:17.939Z,71.74
2022-10-06T10:29:10.880Z,72.63
2022-10-06T10:32:17.470Z,72.80
2022-10-06T10:34:50.247Z,72.81
2022-10-06T10:37:37.203Z,72.53
2022-10-06T10:40:28.678Z,72.74
2022-10-06T10:43:06.998Z,72.62
2022-10-06T10:45:35.790Z,72.76
2022-10-06T10:48:49.043Z,72.75
2022-10-06T10:51:27.544Z,73.11
2022-10-06T10:54:11.089Z,73.20
2022-10-06T10:56:37.912Z,73.36
2022-10-06T10:59:37.830Z,73.43
2022-10-06T11:02:21.684Z,73.40
2022-10-06T11:04:54.761Z,73.50
2022-10-06T11:07:46.871Z,73.26
2022-10-06T11:10:34.731Z,73.34
2022-10-06T11:13:11.081Z,73.56
2022-10-06T11:16:39.982Z,73.21
2022-10-06T11:19:16.007Z,72.98
2022-10-06T11:21:50.012Z,73.22
2022-10-06T11:24:32.166Z,72.41
2022-10-06T11:27:26.397Z,72.60
2022-10-06T11:30:07.196Z,72.86
2022-10-06T11:32:46.590Z,73.24
2022-10-06T11:35:30.465Z,73.40
2022-10-06T11:38:00.707Z,73.01
2022-10-06T11:40:38.653Z,72.35
2022-10-06T11:43:15.185Z,73.04
2022-10-06T11:46:23.507Z,73.23
2022-10-06T11:48:50.362Z,73.35
2022-10-06T11:51:20.950Z,73.29
2022-10-06T11:53:47.826Z,73.34
2022-10-06T11:56:17.549Z,73.34
2022-10-06T11:58:56.561Z,73.12
2022-10-06T12:01:33.476Z,73.21
2022-10-06T12:04:09.452Z,73.27
2022-10-06T12:06:47.553Z,73.24
2022-10-06T12:09:32.530Z,73.09
2022-10-06T12:12:23.084Z,72.81
2022-10-06T12:18:11.318Z,72.46
2022-10-06T12:20:55.597Z,72.59
2022-10-06T12:23:43.476Z,72.35
2022-10-06T12:26:32.705Z,72.71
2022-10-06T12:29:29.722Z,72.29
2022-10-06T12:32:19.543Z,72.28
2022-10-06T12:35:23.837Z,72.60
2022-10-06T12:37:54.411Z,72.45
2022-10-06T12:40:40.504Z,72.24
2022-10-06T12:43:19.626Z,71.44
2022-10-06T12:45:57.246Z,71.83
2022-10-06T12:48:40.106Z,70.60
2022-10-06T12:51:06.891Z,71.82
2022-10-06T12:53:43.380Z,72.20
2022-10-06T12:56:28.265Z,72.34
2022-10-06T12:58:55.839Z,72.25
2022-10-06T13:01:23.111Z,72.04
2022-10-06T13:03:52.110Z,72.19
2022-10-06T13:06:22.509Z,71.64
2022-10-06T13:09:05.769Z,71.88
2022-10-06T13:11:32.807Z,71.98
2022-10-06T13:14:28.965Z,71.83
2022-10-06T13:16:58.483Z,72.33
2022-10-06T13:19:28.233Z,72.46
2022-10-06T13:21:55.127Z,72.04
2022-10-06T13:24:26.609Z,72.10
2022-10-06T13:26:54.105Z,72.20
2022-10-06T13:29:25.446Z,71.56
2022-10-06T13:31:53.675Z,71.70
2022-10-06T13:34:29.172Z,72.13
2022-10-06T13:36:56.291Z,72.02
2022-10-06T13:39:25.625Z,72.10
2022-10-06T13:41:56.024Z,71.90
2022-10-06T13:44:41.628Z,71.51
2022-10-06T13:47:19.891Z,71.82
2022-10-06T13:50:02.740Z,71.89
2022-10-06T13:52:36.061Z,71.75
2022-10-06T13:55:04.187Z,71.88
2022-10-06T13:57:44.863Z,72.06
2022-10-06T14:00:14.808Z,71.94
2022-10-06T14:02:46.999Z,71.74
2022-10-06T14:05:24.130Z,72.07
2022-10-06T14:07:51.205Z,71.57
2022-10-06T14:10:31.323Z,71.63
2022-10-06T14:13:01.950Z,71.79
2022-10-06T14:15:31.281Z,70.99
2022-10-06T14:18:02.954Z,71.73
2022-10-06T14:20:49.936Z,71.63
2022-10-06T14:23:38.979Z,71.39
2022-10-06T14:26:05.816Z,71.53
2022-10-06T14:28:32.615Z,71.59
2022-10-06T14:30:59.432Z,71.66
2022-10-06T14:33:26.519Z,71.60
2022-10-06T14:35:53.294Z,71.40
2022-10-06T14:38:20.198Z,71.62
2022-10-06T14:40:46.979Z,71.63
2022-10-06T14:43:13.795Z,71.50
2022-10-06T14:45:42.111Z,71.64
2022-10-06T14:48:09.616Z,71.57
2022-10-06T14:50:36.374Z,71.65
2022-10-06T14:53:03.687Z,71.26
2022-10-06T14:55:31.157Z,71.41
2022-10-06T14:58:00.362Z,71.84
2022-10-06T15:00:28.831Z,71.59
2022-10-06T15:02:56.442Z,71.52
2022-10-06T15:05:24.078Z,71.49
2022-10-06T15:08:09.756Z,71.50
2022-10-06T15:10:38.820Z,71.50
2022-10-06T15:13:08.365Z,71.27
2022-10-06T15:15:36.197Z,71.52
2022-10-06T15:18:03.693Z,71.66
2022-10-06T15:20:30.440Z,71.46
2022-10-06T15:22:57.300Z,71.59
2022-10-06T15:25:42.699Z,71.71
2022-10-06T15:28:31.769Z,71.76
2022-10-06T15:30:58.659Z,71.73
2022-10-06T15:33:28.154Z,71.60
2022-10-06T15:36:20.608Z,71.79
2022-10-06T15:38:47.458Z,71.73
2022-10-06T15:41:14.198Z,71.74
2022-10-06T15:43:57.056Z,71.56
2022-10-06T15:46:32.464Z,71.58
2022-10-06T15:49:02.071Z,71.61
2022-10-06T15:51:31.003Z,71.63
2022-10-06T15:53:58.417Z,71.61
2022-10-06T15:56:26.724Z,71.60
2022-10-06T15:58:53.711Z,71.54
2022-10-06T16:01:26.585Z,71.61
2022-10-06T16:03:54.253Z,71.65
2022-10-06T16:06:40.394Z,71.59
2022-10-06T16:09:09.367Z,71.54
2022-10-06T16:11:36.303Z,71.39
2022-10-06T16:14:03.363Z,71.35
2022-10-06T16:16:30.269Z,71.38
2022-10-06T16:18:57.077Z,71.30
2022-10-06T16:21:23.920Z,71.12
2022-10-06T16:23:52.422Z,70.87
2022-10-06T16:26:19.768Z,70.77
2022-10-06T16:28:46.731Z,70.88
2022-10-06T16:31:13.627Z,70.90
2022-10-06T16:33:41.202Z,71.00
2022-10-06T16:36:08.010Z,70.76
2022-10-06T16:38:34.816Z,70.75
2022-10-06T16:41:02.205Z,70.58
2022-10-06T16:43:34.264Z,70.62
2022-10-06T16:46:09.536Z,70.59
2022-10-06T16:48:41.751Z,70.34
2022-10-06T16:51:15.866Z,70.35
2022-10-06T16:53:44.845Z,70.09
2022-10-06T16:56:20.008Z,70.21
2022-10-06T16:59:11.735Z,70.08
2022-10-06T17:01:38.543Z,70.37
2022-10-06T17:04:10.732Z,70.15
2022-10-06T17:06:40.506Z,70.05
2022-10-06T17:09:14.348Z,69.92
2022-10-06T17:11:46.891Z,70.05
2022-10-06T17:14:14.271Z,70.17
2022-10-06T17:16:43.103Z,69.93
2022-10-06T17:19:11.409Z,70.07
2022-10-06T17:21:48.084Z,69.84
2022-10-06T17:24:19.873Z,69.87
2022-10-06T17:26:48.939Z,69.79
2022-10-06T17:29:21.351Z,69.74
2022-10-06T17:31:56.252Z,69.89
2022-10-06T17:34:26.552Z,69.80
2022-10-06T17:36:57.692Z,69.84
2022-10-06T17:39:24.700Z,69.67
2022-10-06T17:41:53.178Z,69.79
2022-10-06T17:44:27.257Z,69.91
2022-10-06T17:46:58.823Z,69.83
2022-10-06T17:49:26.195Z,69.79
2022-10-06T17:51:54.645Z,69.83
2022-10-06T17:54:23.697Z,69.76
2022-10-06T17:56:52.847Z,69.68
2022-10-06T17:59:22.390Z,69.60
2022-10-06T18:01:51.136Z,69.74
2022-10-06T18:04:18.551Z,69.67
2022-10-06T18:06:46.191Z,69.36
2022-10-06T18:09:13.120Z,69.41
2022-10-06T18:11:41.975Z,69.33
2022-10-06T18:14:12.107Z,69.41
2022-10-06T18:16:41.902Z,69.45
2022-10-06T18:19:10.725Z,69.30
2022-10-06T18:21:41.333Z,69.22
2022-10-06T18:24:12.842Z,69.32
2022-10-06T18:26:41.897Z,69.04
2022-10-06T18:29:09.872Z,69.03
2022-10-06T18:31:37.927Z,69.05
2022-10-06T18:36:52.380Z,69.11
2022-10-06T18:39:19.318Z,68.90
2022-10-06T18:41:47.512Z,68.83
2022-10-06T18:44:34.306Z,68.66
2022-10-06T18:47:19.671Z,68.55
2022-10-06T18:49:46.506Z,68.70
2022-10-06T18:52:13.884Z,68.69
2022-10-06T18:54:44.466Z,68.78
2022-10-06T18:57:11.400Z,68.84
2022-10-06T18:59:38.402Z,68.82
2022-10-06T19:02:05.329Z,69.02
2022-10-06T19:04:35.048Z,68.78
2022-10-06T19:07:02.508Z,68.65
2022-10-06T19:09:29.409Z,68.62
2022-10-06T19:11:57.886Z,68.77
2022-10-06T19:14:31.181Z,68.60
2022-10-06T19:17:02.282Z,68.73
2022-10-06T19:19:30.217Z,68.73
2022-10-06T19:21:59.640Z,68.33
2022-10-06T19:24:38.611Z,68.47
2022-10-06T19:27:11.287Z,68.38
2022-10-06T19:29:45.933Z,68.43
2022-10-06T19:32:19.535Z,68.19
2022-10-06T19:34:47.106Z,68.21
2022-10-06T19:37:14.755Z,68.14
2022-10-06T19:39:43.845Z,68.18
2022-10-06T19:42:33.593Z,68.28
2022-10-06T19:45:00.620Z,68.12
2022-10-06T19:47:27.784Z,67.96
2022-10-06T19:49:58.864Z,67.91
2022-10-06T19:52:27.723Z,67.84
2022-10-06T19:54:54.547Z,68.19
2022-10-06T19:57:21.377Z,68.22
2022-10-06T19:59:48.147Z,68.13
2022-10-06T20:02:14.904Z,68.11
2022-10-06T20:04:41.820Z,68.21
2022-10-06T20:07:09.218Z,68.07
2022-10-06T20:09:36.059Z,68.08
2022-10-06T20:12:02.917Z,67.99
2022-10-06T20:14:29.710Z,68.21
2022-10-06T20:16:57.451Z,67.82
2022-10-06T20:19:25.488Z,67.96
2022-10-06T20:21:53.054Z,67.91
2022-10-06T20:24:24.912Z,67.82
2022-10-06T20:26:52.641Z,68.00
2022-10-06T20:29:22.540Z,67.99
2022-10-06T20:31:51.766Z,67.96
2022-10-06T20:34:21.284Z,67.83
2022-10-06T20:36:51.853Z,67.71
2022-10-06T20:39:40.847Z,67.75
2022-10-06T20:42:12.228Z,67.68
2022-10-06T20:44:42.210Z,67.69
2022-10-06T20:47:10.387Z,67.58
2022-10-06T20:49:37.513Z,67.54
2022-10-06T20:52:05.431Z,67.54
2022-10-06T20:54:34.917Z,67.57
2022-10-06T20:57:06.368Z,67.55
2022-10-06T20:59:35.396Z,67.56
2022-10-06T21:02:03.331Z,67.59
2022-10-06T21:04:30.506Z,67.78
2022-10-06T21:06:57.869Z,67.65
2022-10-06T21:09:25.025Z,67.93
2022-10-06T21:11:52.532Z,67.73
2022-10-06T21:14:20.015Z,67.85
2022-10-06T21:16:48.137Z,67.93
2022-10-06T21:19:16.870Z,67.99
2022-10-06T21:21:46.147Z,68.08
2022-10-06T21:24:13.108Z,67.92
2022-10-06T21:26:42.806Z,68.07
2022-10-06T21:29:13.020Z,68.34
2022-10-06T21:31:40.007Z,68.13
2022-10-06T21:34:07.680Z,68.43
2022-10-06T21:36:34.655Z,68.47
2022-10-06T21:39:01.815Z,68.35
2022-10-06T21:41:37.048Z,68.29
2022-10-06T21:44:03.870Z,68.23
2022-10-06T21:46:33.235Z,68.25
2022-10-06T21:49:01.467Z,68.14
2022-10-06T21:51:29.942Z,68.17
2022-10-06T21:53:58.214Z,68.05
2022-10-06T21:56:27.120Z,68.07
2022-10-06T21:58:55.874Z,68.08
2022-10-06T22:01:28.198Z,67.96
2022-10-06T22:03:57.545Z,67.95
2022-10-06T22:06:24.533Z,68.18
2022-10-06T22:08:51.437Z,67.78
2022-10-06T22:11:38.718Z,67.68
2022-10-06T22:14:10.249Z,67.58
2022-10-06T22:16:38.065Z,67.61
2022-10-06T22:19:07.497Z,67.57
2022-10-06T22:21:39.522Z,67.52
2022-10-06T22:24:08.994Z,67.51
2022-10-06T22:26:37.644Z,67.44
2022-10-06T22:29:06.186Z,67.38
2022-10-06T22:31:33.210Z,67.61
2022-10-06T22:34:04.556Z,67.60
2022-10-06T22:36:32.025Z,67.64
2022-10-06T22:38:58.956Z,67.50
2022-10-06T22:41:26.038Z,67.79
2022-10-06T22:43:57.572Z,67.65
2022-10-06T22:46:28.589Z,67.54
2022-10-06T22:48:56.054Z,67.58
2022-10-06T22:51:23.313Z,67.60
2022-10-06T22:53:57.951Z,67.55
2022-10-06T22:56:26.667Z,67.47
2022-10-06T22:58:53.666Z,67.58
2022-10-06T23:01:21.074Z,67.61
2022-10-06T23:03:48.144Z,67.68
2022-10-06T23:06:16.793Z,67.63
2022-10-06T23:08:44.078Z,67.39
2022-10-06T23:11:14.525Z,67.64
2022-10-06T23:13:43.318Z,67.46
2022-10-06T23:16:14.681Z,67.35
2022-10-06T23:18:42.993Z,67.40
2022-10-06T23:21:21.694Z,67.34
2022-10-06T23:23:52.926Z,67.44
2022-10-06T23:26:20.795Z,67.61
2022-10-06T23:28:58.809Z,67.43
2022-10-06T23:31:26.607Z,67.39
2022-10-06T23:33:54.650Z,67.37
2022-10-06T23:36:21.584Z,67.41
2022-10-06T23:38:48.511Z,67.23
2022-10-06T23:41:15.863Z,67.25
2022-10-06T23:43:42.883Z,67.18
2022-10-06T23:46:09.935Z,67.27
2022-10-06T23:48:37.520Z,67.16
2022-10-06T23:51:07.445Z,67.23
2022-10-06T23:53:35.024Z,67.38
2022-10-06T23:56:02.306Z,67.03
2022-10-06T23:58:29.351Z,67.21
